sensor_id;sensor_type;location;lat;lon;timestamp;pressure;altitude;pressure_sealevel;temperature;humidity
33506;BME280;19843;51.040;13.782;2022-07-29T00:00:31;154199.78;;;16.83;100.00
33506;BME280;19843;51.040;13.782;2022-07-29T00:03:01;154195.88;;;16.81;100.00
33506;BME280;19843;51.040;13.782;2022-07-29T00:05:29;154219.22;;;16.91;100.00
33506;BME280;19843;51.040;13.782;2022-07-29T00:07:56;154172.59;;;16.72;100.00
33506;BME280;19843;51.040;13.782;2022-07-29T00:10:24;154250.22;;;17.03;100.00
33506;BME280;19843;51.040;13.782;2022-07-29T00:12:51;154224.34;;;16.93;100.00
33506;BME280;19843;51.040;13.782;2022-07-29T00:15:19;154216.63;;;16.89;100.00
33506;BME280;19843;51.040;13.782;2022-07-29T00:17:46;154188.13;;;16.78;100.00
33506;BME280;19843;51.040;13.782;2022-07-29T00:20:15;154188.13;;;16.78;100.00
33506;BME280;19843;51.040;13.782;2022-07-29T00:22:43;154177.81;;;16.74;100.00
33506;BME280;19843;51.040;13.782;2022-07-29T00:25:12;154122.13;;;16.53;100.00
33506;BME280;19843;51.040;13.782;2022-07-29T00:27:39;154120.81;;;16.52;100.00
33506;BME280;19843;51.040;13.782;2022-07-29T00:30:07;154139.00;;;16.59;100.00
33506;BME280;19843;51.040;13.782;2022-07-29T00:32:35;154154.53;;;16.65;100.00
33506;BME280;19843;51.040;13.782;2022-07-29T00:35:03;154153.22;;;16.65;100.00
33506;BME280;19843;51.040;13.782;2022-07-29T00:37:50;154154.53;;;16.65;100.00
33506;BME280;19843;51.040;13.782;2022-07-29T00:40:18;154158.38;;;16.67;100.00
33506;BME280;19843;51.040;13.782;2022-07-29T00:42:50;154128.56;;;16.55;100.00
33506;BME280;19843;51.040;13.782;2022-07-29T00:45:18;154126.00;;;16.54;100.00
33506;BME280;19843;51.040;13.782;2022-07-29T00:47:46;154101.41;;;16.44;100.00
33506;BME280;19843;51.040;13.782;2022-07-29T00:50:14;154094.94;;;16.42;100.00
33506;BME280;19843;51.040;13.782;2022-07-29T00:52:42;154109.19;;;16.47;100.00
33506;BME280;19843;51.040;13.782;2022-07-29T00:55:14;154043.22;;;16.22;100.00
33506;BME280;19843;51.040;13.782;2022-07-29T00:57:43;154001.84;;;16.05;100.00
33506;BME280;19843;51.040;13.782;2022-07-29T01:00:13;154027.69;;;16.16;100.00
33506;BME280;19843;51.040;13.782;2022-07-29T01:02:41;154004.44;;;16.07;100.00
33506;BME280;19843;51.040;13.782;2022-07-29T01:05:10;153994.06;;;16.02;100.00
33506;BME280;19843;51.040;13.782;2022-07-29T01:07:39;153952.66;;;15.86;100.00
33506;BME280;19843;51.040;13.782;2022-07-29T01:10:08;154001.84;;;16.05;100.00
33506;BME280;19843;51.040;13.782;2022-07-29T01:12:38;153999.25;;;16.04;100.00
33506;BME280;19843;51.040;13.782;2022-07-29T01:15:07;154032.88;;;16.18;100.00
33506;BME280;19843;51.040;13.782;2022-07-29T01:17:41;154058.75;;;16.28;100.00
33506;BME280;19843;51.040;13.782;2022-07-29T01:20:25;154082.03;;;16.37;100.00
33506;BME280;19843;51.040;13.782;2022-07-29T01:23:08;154036.72;;;16.19;100.00
33506;BME280;19843;51.040;13.782;2022-07-29T01:25:57;154092.34;;;16.41;100.00
33506;BME280;19843;51.040;13.782;2022-07-29T01:28:58;154041.94;;;16.21;100.00
33506;BME280;19843;51.040;13.782;2022-07-29T01:31:38;153996.66;;;16.03;100.00
33506;BME280;19843;51.040;13.782;2022-07-29T01:34:30;154016.06;;;16.11;100.00
33506;BME280;19843;51.040;13.782;2022-07-29T01:37:06;154005.75;;;16.07;100.00
33506;BME280;19843;51.040;13.782;2022-07-29T01:39:35;154027.69;;;16.16;100.00
33506;BME280;19843;51.040;13.782;2022-07-29T01:42:10;153987.63;;;16.00;100.00
33506;BME280;19843;51.040;13.782;2022-07-29T01:44:53;154045.81;;;16.23;100.00
33506;BME280;19843;51.040;13.782;2022-07-29T01:47:26;154008.28;;;16.08;100.00
33506;BME280;19843;51.040;13.782;2022-07-29T01:49:58;154013.47;;;16.10;100.00
33506;BME280;19843;51.040;13.782;2022-07-29T01:52:38;154027.69;;;16.16;100.00
33506;BME280;19843;51.040;13.782;2022-07-29T01:55:11;153968.19;;;15.92;100.00
33506;BME280;19843;51.040;13.782;2022-07-29T01:57:43;154004.44;;;16.07;100.00
33506;BME280;19843;51.040;13.782;2022-07-29T02:00:15;154013.47;;;16.10;100.00
33506;BME280;19843;51.040;13.782;2022-07-29T02:02:44;154022.50;;;16.14;100.00
33506;BME280;19843;51.040;13.782;2022-07-29T02:05:15;153995.34;;;16.03;100.00
33506;BME280;19843;51.040;13.782;2022-07-29T02:07:44;154001.84;;;16.05;100.00
33506;BME280;19843;51.040;13.782;2022-07-29T02:10:15;153970.78;;;15.93;100.00
33506;BME280;19843;51.040;13.782;2022-07-29T02:12:52;153979.81;;;15.97;100.00
33506;BME280;19843;51.040;13.782;2022-07-29T02:15:23;153988.91;;;16.00;100.00
33506;BME280;19843;51.040;13.782;2022-07-29T02:17:55;153933.31;;;15.79;100.00
33506;BME280;19843;51.040;13.782;2022-07-29T02:20:25;153888.03;;;15.61;100.00
33506;BME280;19843;51.040;13.782;2022-07-29T02:22:53;153917.78;;;15.73;100.00
33506;BME280;19843;51.040;13.782;2022-07-29T02:25:22;153991.50;;;16.01;100.00
33506;BME280;19843;51.040;13.782;2022-07-29T02:28:02;153953.97;;;15.87;100.00
33506;BME280;19843;51.040;13.782;2022-07-29T02:30:32;153950.13;;;15.85;100.00
33506;BME280;19843;51.040;13.782;2022-07-29T02:33:01;153955.25;;;15.87;100.00
33506;BME280;19843;51.040;13.782;2022-07-29T02:35:30;153932.00;;;15.78;100.00
33506;BME280;19843;51.040;13.782;2022-07-29T02:38:02;153932.00;;;15.78;100.00
33506;BME280;19843;51.040;13.782;2022-07-29T02:40:48;153978.56;;;15.96;100.00
33506;BME280;19843;51.040;13.782;2022-07-29T02:43:19;153928.13;;;15.77;100.00
33506;BME280;19843;51.040;13.782;2022-07-29T02:45:51;153932.00;;;15.78;100.00
33506;BME280;19843;51.040;13.782;2022-07-29T02:48:22;153939.75;;;15.81;100.00
33506;BME280;19843;51.040;13.782;2022-07-29T02:51:06;153886.75;;;15.60;100.00
33506;BME280;19843;51.040;13.782;2022-07-29T02:53:38;153906.16;;;15.68;100.00
33506;BME280;19843;51.040;13.782;2022-07-29T02:56:08;153934.59;;;15.79;100.00
33506;BME280;19843;51.040;13.782;2022-07-29T02:58:40;153926.81;;;15.76;100.00
33506;BME280;19843;51.040;13.782;2022-07-29T03:01:13;153947.53;;;15.84;100.00
33506;BME280;19843;51.040;13.782;2022-07-29T03:03:49;153895.81;;;15.64;100.00
33506;BME280;19843;51.040;13.782;2022-07-29T03:06:17;153895.81;;;15.64;100.00
33506;BME280;19843;51.040;13.782;2022-07-29T03:09:03;153869.97;;;15.54;100.00
33506;BME280;19843;51.040;13.782;2022-07-29T03:11:38;153854.41;;;15.48;100.00
33506;BME280;19843;51.040;13.782;2022-07-29T03:14:17;153900.97;;;15.66;100.00
33506;BME280;19843;51.040;13.782;2022-07-29T03:16:48;153944.94;;;15.83;100.00
33506;BME280;19843;51.040;13.782;2022-07-29T03:19:17;153924.28;;;15.75;100.00
33506;BME280;19843;51.040;13.782;2022-07-29T03:21:45;153930.72;;;15.78;100.00
33506;BME280;19843;51.040;13.782;2022-07-29T03:24:27;153959.16;;;15.89;100.00
33506;BME280;19843;51.040;13.782;2022-07-29T03:26:56;153991.50;;;16.01;100.00
33506;BME280;19843;51.040;13.782;2022-07-29T03:29:24;153957.88;;;15.88;100.00
33506;BME280;19843;51.040;13.782;2022-07-29T03:32:01;153928.13;;;15.77;100.00
33506;BME280;19843;51.040;13.782;2022-07-29T03:34:34;153913.88;;;15.71;100.00
33506;BME280;19843;51.040;13.782;2022-07-29T03:37:02;153934.59;;;15.79;100.00
33506;BME280;19843;51.040;13.782;2022-07-29T03:39:33;153904.88;;;15.68;100.00
33506;BME280;19843;51.040;13.782;2022-07-29T03:42:02;153913.88;;;15.71;100.00
33506;BME280;19843;51.040;13.782;2022-07-29T03:44:32;153968.19;;;15.92;100.00
33506;BME280;19843;51.040;13.782;2022-07-29T03:47:01;153910.06;;;15.70;100.00
33506;BME280;19843;51.040;13.782;2022-07-29T03:49:32;153881.59;;;15.58;100.00
33506;BME280;19843;51.040;13.782;2022-07-29T03:52:00;153877.72;;;15.57;100.00
33506;BME280;19843;51.040;13.782;2022-07-29T03:54:27;153947.53;;;15.84;100.00
33506;BME280;19843;51.040;13.782;2022-07-29T03:56:58;153895.81;;;15.64;100.00
33506;BME280;19843;51.040;13.782;2022-07-29T03:59:26;153886.75;;;15.60;100.00
33506;BME280;19843;51.040;13.782;2022-07-29T04:01:55;153898.38;;;15.65;100.00
33506;BME280;19843;51.040;13.782;2022-07-29T04:04:25;153913.88;;;15.71;100.00
33506;BME280;19843;51.040;13.782;2022-07-29T04:06:54;153911.34;;;15.70;100.00
33506;BME280;19843;51.040;13.782;2022-07-29T04:09:21;153922.97;;;15.75;100.00
33506;BME280;19843;51.040;13.782;2022-07-29T04:11:49;153966.91;;;15.92;100.00
33506;BME280;19843;51.040;13.782;2022-07-29T04:14:29;153986.31;;;15.99;100.00
33506;BME280;19843;51.040;13.782;2022-07-29T04:16:57;154014.78;;;16.11;100.00
33506;BME280;19843;51.040;13.782;2022-07-29T04:19:25;154041.94;;;16.21;100.00
33506;BME280;19843;51.040;13.782;2022-07-29T04:21:53;154032.88;;;16.18;100.00
33506;BME280;19843;51.040;13.782;2022-07-29T04:24:20;154001.84;;;16.05;100.00
33506;BME280;19843;51.040;13.782;2022-07-29T04:26:48;154035.44;;;16.19;100.00
33506;BME280;19843;51.040;13.782;2022-07-29T04:29:15;154060.06;;;16.28;100.00
33506;BME280;19843;51.040;13.782;2022-07-29T04:31:43;154092.34;;;16.41;100.00
33506;BME280;19843;51.040;13.782;2022-07-29T04:34:11;154136.34;;;16.58;100.00
33506;BME280;19843;51.040;13.782;2022-07-29T04:36:41;154144.13;;;16.61;100.00
33506;BME280;19843;51.040;13.782;2022-07-29T04:39:08;154211.41;;;16.87;100.00
33506;BME280;19843;51.040;13.782;2022-07-29T04:41:36;154239.88;;;16.99;100.00
33506;BME280;19843;51.040;13.782;2022-07-29T04:44:04;154270.97;;;17.11;100.00
33506;BME280;19843;51.040;13.782;2022-07-29T04:46:32;154224.34;;;16.93;100.00
33506;BME280;19843;51.040;13.782;2022-07-29T04:49:00;154250.22;;;17.03;100.00
33506;BME280;19843;51.040;13.782;2022-07-29T04:51:28;154254.13;;;17.04;100.00
33506;BME280;19843;51.040;13.782;2022-07-29T04:53:57;154239.88;;;16.99;100.00
33506;BME280;19843;51.040;13.782;2022-07-29T04:56:25;154273.56;;;17.12;100.00
33506;BME280;19843;51.040;13.782;2022-07-29T04:58:53;154325.31;;;17.32;100.00
33506;BME280;19843;51.040;13.782;2022-07-29T05:01:20;154339.56;;;17.38;100.00
33506;BME280;19843;51.040;13.782;2022-07-29T05:03:48;154356.41;;;17.44;100.00
33506;BME280;19843;51.040;13.782;2022-07-29T05:06:15;154391.31;;;17.58;100.00
33506;BME280;19843;51.040;13.782;2022-07-29T05:08:43;154413.38;;;17.66;100.00
33506;BME280;19843;51.040;13.782;2022-07-29T05:11:12;154443.16;;;17.78;100.00
33506;BME280;19843;51.040;13.782;2022-07-29T05:13:46;154529.94;;;18.12;100.00
33506;BME280;19843;51.040;13.782;2022-07-29T05:16:14;154550.63;;;18.20;100.00
33506;BME280;19843;51.040;13.782;2022-07-29T05:18:41;154610.22;;;18.43;100.00
33506;BME280;19843;51.040;13.782;2022-07-29T05:21:09;154667.28;;;18.66;100.00
33506;BME280;19843;51.040;13.782;2022-07-29T05:23:37;154688.00;;;18.74;100.00
33506;BME280;19843;51.040;13.782;2022-07-29T05:26:05;154763.19;;;19.03;100.00
33506;BME280;19843;51.040;13.782;2022-07-29T05:28:34;154685.41;;;18.73;100.00
33506;BME280;19843;51.040;13.782;2022-07-29T05:31:02;154759.28;;;19.02;100.00
33506;BME280;19843;51.040;13.782;2022-07-29T05:33:29;154821.47;;;19.26;100.00
33506;BME280;19843;51.040;13.782;2022-07-29T05:36:02;154811.09;;;19.22;100.00
33506;BME280;19843;51.040;13.782;2022-07-29T05:38:31;154875.97;;;19.47;100.00
33506;BME280;19843;51.040;13.782;2022-07-29T05:40:59;154865.56;;;19.43;100.00
33506;BME280;19843;51.040;13.782;2022-07-29T05:43:26;154859.03;;;19.40;100.00
33506;BME280;19843;51.040;13.782;2022-07-29T05:45:56;154838.31;;;19.32;100.00
33506;BME280;19843;51.040;13.782;2022-07-29T05:48:24;154829.28;;;19.29;100.00
33506;BME280;19843;51.040;13.782;2022-07-29T05:50:52;154846.09;;;19.35;100.00
33506;BME280;19843;51.040;13.782;2022-07-29T05:53:20;154856.50;;;19.39;100.00
33506;BME280;19843;51.040;13.782;2022-07-29T05:55:48;154851.28;;;19.37;100.00
33506;BME280;19843;51.040;13.782;2022-07-29T05:58:16;154862.94;;;19.42;100.00
33506;BME280;19843;51.040;13.782;2022-07-29T06:00:43;154820.16;;;19.25;100.00
33506;BME280;19843;51.040;13.782;2022-07-29T06:03:13;154796.84;;;19.16;100.00
33506;BME280;19843;51.040;13.782;2022-07-29T06:05:40;154844.84;;;19.35;100.00
33506;BME280;19843;51.040;13.782;2022-07-29T06:08:08;154831.81;;;19.30;100.00
33506;BME280;19843;51.040;13.782;2022-07-29T06:10:35;154796.84;;;19.16;100.00
33506;BME280;19843;51.040;13.782;2022-07-29T06:13:03;154795.56;;;19.16;100.00
33506;BME280;19843;51.040;13.782;2022-07-29T06:15:30;154790.41;;;19.14;100.00
33506;BME280;19843;51.040;13.782;2022-07-29T06:17:58;154821.47;;;19.26;100.00
33506;BME280;19843;51.040;13.782;2022-07-29T06:20:29;154862.94;;;19.42;100.00
33506;BME280;19843;51.040;13.782;2022-07-29T06:22:58;154916.16;;;19.63;100.00
33506;BME280;19843;51.040;13.782;2022-07-29T06:25:25;154896.72;;;19.55;100.00
33506;BME280;19843;51.040;13.782;2022-07-29T06:27:55;154956.34;;;19.78;100.00
33506;BME280;19843;51.040;13.782;2022-07-29T06:30:22;155004.34;;;19.97;100.00
33506;BME280;19843;51.040;13.782;2022-07-29T06:32:50;155006.94;;;19.98;100.00
33506;BME280;19843;51.040;13.782;2022-07-29T06:35:18;155058.81;;;20.18;100.00
33506;BME280;19843;51.040;13.782;2022-07-29T06:38:06;155095.16;;;20.33;100.00
33506;BME280;19843;51.040;13.782;2022-07-29T06:40:54;155156.16;;;20.56;100.00
33506;BME280;19843;51.040;13.782;2022-07-29T06:43:30;155153.53;;;20.55;100.00
33506;BME280;19843;51.040;13.782;2022-07-29T06:46:00;155123.69;;;20.44;100.00
33506;BME280;19843;51.040;13.782;2022-07-29T06:48:29;155028.97;;;20.07;100.00
33506;BME280;19843;51.040;13.782;2022-07-29T06:50:56;154965.44;;;19.82;100.00
33506;BME280;19843;51.040;13.782;2022-07-29T06:53:25;155028.97;;;20.07;100.00
33506;BME280;19843;51.040;13.782;2022-07-29T06:55:52;155058.81;;;20.18;100.00
33506;BME280;19843;51.040;13.782;2022-07-29T06:58:20;155095.16;;;20.33;100.00
33506;BME280;19843;51.040;13.782;2022-07-29T07:00:47;155152.25;;;20.55;100.00
33506;BME280;19843;51.040;13.782;2022-07-29T07:03:16;155196.34;;;20.72;100.00
33506;BME280;19843;51.040;13.782;2022-07-29T07:05:44;155272.91;;;21.02;100.00
33506;BME280;19843;51.040;13.782;2022-07-29T07:08:12;155333.91;;;21.26;100.00
33506;BME280;19843;51.040;13.782;2022-07-29T07:10:42;155276.81;;;21.03;100.00
33506;BME280;19843;51.040;13.782;2022-07-29T07:13:10;155369.00;;;21.39;100.00
33506;BME280;19843;51.040;13.782;2022-07-29T07:15:38;155449.47;;;21.71;100.00
33506;BME280;19843;51.040;13.782;2022-07-29T07:18:06;155493.63;;;21.88;100.00
33506;BME280;19843;51.040;13.782;2022-07-29T07:20:34;155475.44;;;21.81;100.00
33506;BME280;19843;51.040;13.782;2022-07-29T07:23:02;155596.25;;;22.28;100.00
33506;BME280;19843;51.040;13.782;2022-07-29T07:25:30;155601.47;;;22.30;100.00
33506;BME280;19843;51.040;13.782;2022-07-29T07:27:59;155528.72;;;22.02;100.00
33506;BME280;19843;51.040;13.782;2022-07-29T07:30:27;155502.69;;;21.91;100.00
33506;BME280;19843;51.040;13.782;2022-07-29T07:32:54;155605.31;;;22.31;100.00
33506;BME280;19843;51.040;13.782;2022-07-29T07:35:22;155630.03;;;22.41;100.00
33506;BME280;19843;51.040;13.782;2022-07-29T07:37:50;155666.41;;;22.55;100.00
33506;BME280;19843;51.040;13.782;2022-07-29T07:40:17;155583.25;;;22.23;100.00
33506;BME280;19843;51.040;13.782;2022-07-29T07:42:45;155596.25;;;22.28;100.00
33506;BME280;19843;51.040;13.782;2022-07-29T07:45:13;155609.22;;;22.33;100.00
33506;BME280;19843;51.040;13.782;2022-07-29T07:47:42;155580.66;;;22.22;100.00
33506;BME280;19843;51.040;13.782;2022-07-29T07:50:11;155669.00;;;22.56;100.00
33506;BME280;19843;51.040;13.782;2022-07-29T07:52:49;155643.03;;;22.46;100.00
33506;BME280;19843;51.040;13.782;2022-07-29T07:55:17;155719.69;;;22.76;100.00
33506;BME280;19843;51.040;13.782;2022-07-29T07:57:45;155769.06;;;22.95;100.00
33506;BME280;19843;51.040;13.782;2022-07-29T08:00:16;155821.09;;;23.15;100.00
33506;BME280;19843;51.040;13.782;2022-07-29T08:02:44;155871.75;;;23.35;100.00
33506;BME280;19843;51.040;13.782;2022-07-29T08:05:13;155914.69;;;23.52;100.00
33506;BME280;19843;51.040;13.782;2022-07-29T08:07:44;155879.53;;;23.38;100.00
33506;BME280;19843;51.040;13.782;2022-07-29T08:10:12;155944.56;;;23.64;100.00
33506;BME280;19843;51.040;13.782;2022-07-29T08:12:41;155961.47;;;23.70;100.00
33506;BME280;19843;51.040;13.782;2022-07-29T08:15:09;155999.16;;;23.85;100.00
33506;BME280;19843;51.040;13.782;2022-07-29T08:17:38;156091.56;;;24.21;100.00
33506;BME280;19843;51.040;13.782;2022-07-29T08:20:06;156163.06;;;24.49;99.23
33506;BME280;19843;51.040;13.782;2022-07-29T08:22:33;156290.63;;;24.98;98.52
33506;BME280;19843;51.040;13.782;2022-07-29T08:25:00;156323.16;;;25.11;93.79
33506;BME280;19843;51.040;13.782;2022-07-29T08:27:28;156251.53;;;24.83;93.39
33506;BME280;19843;51.040;13.782;2022-07-29T08:30:09;156342.66;;;25.18;92.27
33506;BME280;19843;51.040;13.782;2022-07-29T08:32:39;156437.72;;;25.55;92.50
33506;BME280;19843;51.040;13.782;2022-07-29T08:35:19;156531.41;;;25.92;90.28
33506;BME280;19843;51.040;13.782;2022-07-29T08:37:47;156682.50;;;26.51;89.73
33506;BME280;19843;51.040;13.782;2022-07-29T08:40:15;156665.56;;;26.44;80.74
33506;BME280;19843;51.040;13.782;2022-07-29T08:42:43;156537.94;;;25.94;86.26
33506;BME280;19843;51.040;13.782;2022-07-29T08:45:10;156625.22;;;26.28;81.16
33506;BME280;19843;51.040;13.782;2022-07-29T08:47:39;156698.16;;;26.57;87.00
33506;BME280;19843;51.040;13.782;2022-07-29T08:50:08;156777.66;;;26.87;81.29
33506;BME280;19843;51.040;13.782;2022-07-29T08:52:37;156613.50;;;26.24;82.70
33506;BME280;19843;51.040;13.782;2022-07-29T08:55:06;156590.03;;;26.15;83.04
33506;BME280;19843;51.040;13.782;2022-07-29T08:57:35;156627.81;;;26.29;85.96
33506;BME280;19843;51.040;13.782;2022-07-29T09:00:08;156537.94;;;25.94;85.28
33506;BME280;19843;51.040;13.782;2022-07-29T09:02:41;156696.84;;;26.56;81.09
33506;BME280;19843;51.040;13.782;2022-07-29T09:05:12;156795.91;;;26.95;79.62
33506;BME280;19843;51.040;13.782;2022-07-29T09:07:40;156871.44;;;27.24;73.62
33506;BME280;19843;51.040;13.782;2022-07-29T09:10:10;156939.25;;;27.50;74.12
33506;BME280;19843;51.040;13.782;2022-07-29T09:12:38;156949.72;;;27.54;69.44
33506;BME280;19843;51.040;13.782;2022-07-29T09:15:07;156934.00;;;27.48;68.21
33506;BME280;19843;51.040;13.782;2022-07-29T09:17:45;156952.28;;;27.55;68.54
33506;BME280;19843;51.040;13.782;2022-07-29T09:20:17;156957.50;;;27.57;68.02
33506;BME280;19843;51.040;13.782;2022-07-29T09:22:45;157050.03;;;27.93;67.69
33506;BME280;19843;51.040;13.782;2022-07-29T09:25:31;157173.94;;;28.41;64.78
33506;BME280;19843;51.040;13.782;2022-07-29T09:28:05;157176.56;;;28.42;62.80
33506;BME280;19843;51.040;13.782;2022-07-29T09:30:33;157119.19;;;28.20;64.02
33506;BME280;19843;51.040;13.782;2022-07-29T09:33:03;157179.16;;;28.43;62.43
33506;BME280;19843;51.040;13.782;2022-07-29T09:35:30;157228.69;;;28.63;61.53
33506;BME280;19843;51.040;13.782;2022-07-29T09:38:09;157231.31;;;28.64;62.60
33506;BME280;19843;51.040;13.782;2022-07-29T09:40:38;157252.16;;;28.72;61.16
33506;BME280;19843;51.040;13.782;2022-07-29T09:43:10;157214.34;;;28.57;61.17
33506;BME280;19843;51.040;13.782;2022-07-29T09:45:38;157243.06;;;28.68;61.15
33506;BME280;19843;51.040;13.782;2022-07-29T09:48:14;157103.53;;;28.14;62.53
33506;BME280;19843;51.040;13.782;2022-07-29T09:50:44;157142.63;;;28.29;61.65
33506;BME280;19843;51.040;13.782;2022-07-29T09:53:29;157067.00;;;28.00;62.14
33506;BME280;19843;51.040;13.782;2022-07-29T09:55:58;157205.25;;;28.53;59.82
33506;BME280;19843;51.040;13.782;2022-07-29T09:58:26;157307.00;;;28.93;59.10
33506;BME280;19843;51.040;13.782;2022-07-29T10:00:55;157321.34;;;28.98;56.43
33506;BME280;19843;51.040;13.782;2022-07-29T10:03:24;157523.59;;;29.77;55.84
33506;BME280;19843;51.040;13.782;2022-07-29T10:06:06;157595.44;;;30.05;52.95
33506;BME280;19843;51.040;13.782;2022-07-29T10:08:34;157656.78;;;30.29;52.65
33506;BME280;19843;51.040;13.782;2022-07-29T10:11:09;157618.91;;;30.14;51.12
33506;BME280;19843;51.040;13.782;2022-07-29T10:13:38;157709.06;;;30.49;49.26
33506;BME280;19843;51.040;13.782;2022-07-29T10:16:05;157831.78;;;30.96;48.37
33506;BME280;19843;51.040;13.782;2022-07-29T10:18:35;157698.56;;;30.45;46.85
33506;BME280;19843;51.040;13.782;2022-07-29T10:21:04;157526.22;;;29.78;47.60
33506;BME280;19843;51.040;13.782;2022-07-29T10:23:33;157424.47;;;29.38;48.09
33506;BME280;19843;51.040;13.782;2022-07-29T10:26:11;157330.50;;;29.02;50.01
33506;BME280;19843;51.040;13.782;2022-07-29T10:28:40;157455.75;;;29.51;49.46
33506;BME280;19843;51.040;13.782;2022-07-29T10:31:12;157541.88;;;29.84;50.86
33506;BME280;19843;51.040;13.782;2022-07-29T10:33:53;157510.53;;;29.72;51.38
33506;BME280;19843;51.040;13.782;2022-07-29T10:36:40;157519.72;;;29.75;49.86
33506;BME280;19843;51.040;13.782;2022-07-29T10:39:12;157446.63;;;29.47;49.08
33506;BME280;19843;51.040;13.782;2022-07-29T10:41:59;157521.03;;;29.76;49.33
33506;BME280;19843;51.040;13.782;2022-07-29T10:44:30;157560.22;;;29.91;48.90
33506;BME280;19843;51.040;13.782;2022-07-29T10:46:58;157424.47;;;29.38;48.39
33506;BME280;19843;51.040;13.782;2022-07-29T10:49:28;157414.03;;;29.34;48.07
33506;BME280;19843;51.040;13.782;2022-07-29T10:52:02;157477.94;;;29.59;46.89
33506;BME280;19843;51.040;13.782;2022-07-29T10:54:40;157470.09;;;29.56;47.83
33506;BME280;19843;51.040;13.782;2022-07-29T10:57:17;157501.44;;;29.68;46.16
33506;BME280;19843;51.040;13.782;2022-07-29T10:59:47;157583.69;;;30.00;46.58
33506;BME280;19843;51.040;13.782;2022-07-29T11:02:41;157779.56;;;30.76;44.67
33506;BME280;19843;51.040;13.782;2022-07-29T11:05:13;157502.75;;;29.69;45.69
33506;BME280;19843;51.040;13.782;2022-07-29T11:10:46;157575.88;;;29.97;45.37
33506;BME280;19843;51.040;13.782;2022-07-29T11:13:44;157659.41;;;30.30;45.06
33506;BME280;19843;51.040;13.782;2022-07-29T11:16:14;157782.19;;;30.77;43.82
33506;BME280;19843;51.040;13.782;2022-07-29T11:19:19;157646.31;;;30.25;44.25
33506;BME280;19843;51.040;13.782;2022-07-29T11:21:57;157575.88;;;29.97;45.44
33506;BME280;19843;51.040;13.782;2022-07-29T11:24:26;157675.03;;;30.36;45.60
33506;BME280;19843;51.040;13.782;2022-07-29T11:27:09;157685.53;;;30.40;44.66
33506;BME280;19843;51.040;13.782;2022-07-29T11:29:41;157607.16;;;30.09;45.87
33506;BME280;19843;51.040;13.782;2022-07-29T11:32:15;157667.22;;;30.33;46.29
33506;BME280;19843;51.040;13.782;2022-07-29T11:34:50;157595.44;;;30.05;45.51
33506;BME280;19843;51.040;13.782;2022-07-29T11:37:44;157676.34;;;30.36;45.23
33506;BME280;19843;51.040;13.782;2022-07-29T11:40:21;157726.03;;;30.55;45.51
33506;BME280;19843;51.040;13.782;2022-07-29T11:42:49;157723.41;;;30.54;45.81
33506;BME280;19843;51.040;13.782;2022-07-29T11:45:22;157800.44;;;30.84;45.20
33506;BME280;19843;51.040;13.782;2022-07-29T11:48:15;157810.88;;;30.88;44.64
33506;BME280;19843;51.040;13.782;2022-07-29T11:50:58;157737.78;;;30.60;44.50
33506;BME280;19843;51.040;13.782;2022-07-29T11:53:29;157779.56;;;30.76;44.85
33506;BME280;19843;51.040;13.782;2022-07-29T11:55:58;157884.06;;;31.17;44.10
33506;BME280;19843;51.040;13.782;2022-07-29T11:58:28;157878.81;;;31.15;43.41
33506;BME280;19843;51.040;13.782;2022-07-29T12:00:56;157823.91;;;30.93;44.04
33506;BME280;19843;51.040;13.782;2022-07-29T12:03:30;157719.47;;;30.53;45.37
33506;BME280;19843;51.040;13.782;2022-07-29T12:06:03;157758.66;;;30.68;45.45
33506;BME280;19843;51.040;13.782;2022-07-29T12:08:39;157821.34;;;30.92;44.50
33506;BME280;19843;51.040;13.782;2022-07-29T12:11:15;157886.69;;;31.18;44.76
33506;BME280;19843;51.040;13.782;2022-07-29T12:13:47;157808.28;;;30.87;44.05
33506;BME280;19843;51.040;13.782;2022-07-29T12:16:15;157852.69;;;31.04;43.94
33506;BME280;19843;51.040;13.782;2022-07-29T12:18:56;157921.91;;;31.31;43.99
33506;BME280;19843;51.040;13.782;2022-07-29T12:21:24;157928.47;;;31.34;43.93
33506;BME280;19843;51.040;13.782;2022-07-29T12:23:56;157827.84;;;30.95;44.01
33506;BME280;19843;51.040;13.782;2022-07-29T12:26:34;157891.88;;;31.20;45.16
33506;BME280;19843;51.040;13.782;2022-07-29T12:29:02;157911.47;;;31.27;44.15
33506;BME280;19843;51.040;13.782;2022-07-29T12:31:36;158038.25;;;31.76;43.20
33506;BME280;19843;51.040;13.782;2022-07-29T12:34:10;157852.69;;;31.04;43.55
33506;BME280;19843;51.040;13.782;2022-07-29T12:36:38;157897.13;;;31.22;43.62
33506;BME280;19843;51.040;13.782;2022-07-29T12:39:09;157818.72;;;30.91;44.76
33506;BME280;19843;51.040;13.782;2022-07-29T12:41:38;157680.28;;;30.38;45.84
33506;BME280;19843;51.040;13.782;2022-07-29T12:44:05;157662.00;;;30.31;46.39
33506;BME280;19843;51.040;13.782;2022-07-29T12:46:33;157594.13;;;30.04;46.14
33506;BME280;19843;51.040;13.782;2022-07-29T12:49:00;157651.56;;;30.27;45.33
33506;BME280;19843;51.040;13.782;2022-07-29T12:51:30;157528.81;;;29.79;48.15
33506;BME280;19843;51.040;13.782;2022-07-29T12:54:05;157575.88;;;29.97;48.09
33506;BME280;19843;51.040;13.782;2022-07-29T12:56:34;157646.31;;;30.25;47.09